sensor_id;sensor_type;location;lat;lon;timestamp;temperature;humidity
32753;DHT22;19121;52.428;10.816;2023-06-26T00:00:44;26.90;53.30
32753;DHT22;19121;52.428;10.816;2023-06-26T00:03:09;26.90;53.30
32753;DHT22;19121;52.428;10.816;2023-06-26T00:05:40;26.90;53.30
32753;DHT22;19121;52.428;10.816;2023-06-26T00:08:06;26.90;53.30
32753;DHT22;19121;52.428;10.816;2023-06-26T00:10:32;26.90;53.30
32753;DHT22;19121;52.428;10.816;2023-06-26T00:12:57;26.90;53.30
32753;DHT22;19121;52.428;10.816;2023-06-26T00:15:23;26.90;53.30
32753;DHT22;19121;52.428;10.816;2023-06-26T00:17:49;26.90;53.30
32753;DHT22;19121;52.428;10.816;2023-06-26T00:20:16;26.90;53.30
32753;DHT22;19121;52.428;10.816;2023-06-26T00:22:41;26.80;53.30
32753;DHT22;19121;52.428;10.816;2023-06-26T00:25:07;26.80;53.20
32753;DHT22;19121;52.428;10.816;2023-06-26T00:27:32;26.90;53.30
32753;DHT22;19121;52.428;10.816;2023-06-26T00:29:58;26.80;53.20
32753;DHT22;19121;52.428;10.816;2023-06-26T00:32:23;26.80;53.20
32753;DHT22;19121;52.428;10.816;2023-06-26T00:34:48;26.80;53.20
32753;DHT22;19121;52.428;10.816;2023-06-26T00:37:14;26.80;53.20
32753;DHT22;19121;52.428;10.816;2023-06-26T00:39:39;26.80;53.20
32753;DHT22;19121;52.428;10.816;2023-06-26T00:42:06;26.80;53.20
32753;DHT22;19121;52.428;10.816;2023-06-26T00:44:31;26.80;53.20
32753;DHT22;19121;52.428;10.816;2023-06-26T00:46:56;26.80;53.20
32753;DHT22;19121;52.428;10.816;2023-06-26T00:49:22;26.80;53.30
32753;DHT22;19121;52.428;10.816;2023-06-26T00:51:48;26.80;53.30
32753;DHT22;19121;52.428;10.816;2023-06-26T00:54:14;26.70;53.20
32753;DHT22;19121;52.428;10.816;2023-06-26T00:56:45;26.80;53.30
32753;DHT22;19121;52.428;10.816;2023-06-26T00:59:11;26.80;53.30
32753;DHT22;19121;52.428;10.816;2023-06-26T01:01:36;26.80;53.30
32753;DHT22;19121;52.428;10.816;2023-06-26T01:04:01;26.80;53.30
32753;DHT22;19121;52.428;10.816;2023-06-26T01:06:27;26.70;53.30
32753;DHT22;19121;52.428;10.816;2023-06-26T01:08:54;26.70;53.30
32753;DHT22;19121;52.428;10.816;2023-06-26T01:11:20;26.70;53.20
32753;DHT22;19121;52.428;10.816;2023-06-26T01:13:46;26.70;53.20
32753;DHT22;19121;52.428;10.816;2023-06-26T01:16:11;26.70;53.20
32753;DHT22;19121;52.428;10.816;2023-06-26T01:18:38;26.70;53.20
32753;DHT22;19121;52.428;10.816;2023-06-26T01:21:09;26.70;53.20
32753;DHT22;19121;52.428;10.816;2023-06-26T01:28:38;26.70;53.20
32753;DHT22;19121;52.428;10.816;2023-06-26T01:31:04;26.70;53.20
32753;DHT22;19121;52.428;10.816;2023-06-26T01:33:30;26.60;53.20
32753;DHT22;19121;52.428;10.816;2023-06-26T01:35:56;26.70;53.30
32753;DHT22;19121;52.428;10.816;2023-06-26T01:38:21;26.60;53.30
32753;DHT22;19121;52.428;10.816;2023-06-26T01:40:51;26.60;53.30
32753;DHT22;19121;52.428;10.816;2023-06-26T01:45:51;26.70;53.40
32753;DHT22;19121;52.428;10.816;2023-06-26T01:48:19;26.60;53.30
32753;DHT22;19121;52.428;10.816;2023-06-26T01:50:45;26.60;53.30
32753;DHT22;19121;52.428;10.816;2023-06-26T01:53:11;26.60;53.30
32753;DHT22;19121;52.428;10.816;2023-06-26T01:58:06;26.60;53.30
32753;DHT22;19121;52.428;10.816;2023-06-26T02:00:31;26.50;53.30
32753;DHT22;19121;52.428;10.816;2023-06-26T02:02:57;26.60;53.30
32753;DHT22;19121;52.428;10.816;2023-06-26T02:05:23;26.50;53.30
32753;DHT22;19121;52.428;10.816;2023-06-26T02:07:49;26.50;53.30
32753;DHT22;19121;52.428;10.816;2023-06-26T02:10:16;26.50;53.30
32753;DHT22;19121;52.428;10.816;2023-06-26T02:12:42;26.50;53.30
32753;DHT22;19121;52.428;10.816;2023-06-26T02:15:07;26.50;53.30
32753;DHT22;19121;52.428;10.816;2023-06-26T02:17:33;26.50;53.30
32753;DHT22;19121;52.428;10.816;2023-06-26T02:19:59;26.50;53.30
32753;DHT22;19121;52.428;10.816;2023-06-26T02:22:24;26.50;53.30
32753;DHT22;19121;52.428;10.816;2023-06-26T02:24:50;26.50;53.30
32753;DHT22;19121;52.428;10.816;2023-06-26T02:27:15;26.50;53.30
32753;DHT22;19121;52.428;10.816;2023-06-26T02:29:41;26.50;53.30
32753;DHT22;19121;52.428;10.816;2023-06-26T02:32:06;26.50;53.30
32753;DHT22;19121;52.428;10.816;2023-06-26T02:34:32;26.50;53.30
32753;DHT22;19121;52.428;10.816;2023-06-26T02:36:58;26.40;53.20
32753;DHT22;19121;52.428;10.816;2023-06-26T02:39:25;26.50;53.30
32753;DHT22;19121;52.428;10.816;2023-06-26T02:41:51;26.40;53.20
32753;DHT22;19121;52.428;10.816;2023-06-26T02:44:16;26.40;53.30
32753;DHT22;19121;52.428;10.816;2023-06-26T02:46:42;26.40;53.30
32753;DHT22;19121;52.428;10.816;2023-06-26T02:49:07;26.40;53.30
32753;DHT22;19121;52.428;10.816;2023-06-26T02:51:33;26.40;53.30
32753;DHT22;19121;52.428;10.816;2023-06-26T02:53:58;26.40;53.30
32753;DHT22;19121;52.428;10.816;2023-06-26T02:56:24;26.40;53.30
32753;DHT22;19121;52.428;10.816;2023-06-26T02:58:49;26.40;53.30
32753;DHT22;19121;52.428;10.816;2023-06-26T03:01:15;26.40;53.30
32753;DHT22;19121;52.428;10.816;2023-06-26T03:03:40;26.40;53.30
32753;DHT22;19121;52.428;10.816;2023-06-26T03:06:06;26.40;53.30
32753;DHT22;19121;52.428;10.816;2023-06-26T03:08:33;26.30;53.80
32753;DHT22;19121;52.428;10.816;2023-06-26T03:10:58;26.40;53.30
32753;DHT22;19121;52.428;10.816;2023-06-26T03:13:23;26.40;53.30
32753;DHT22;19121;52.428;10.816;2023-06-26T03:15:49;26.40;53.30
32753;DHT22;19121;52.428;10.816;2023-06-26T03:18:14;26.40;53.30
32753;DHT22;19121;52.428;10.816;2023-06-26T03:20:40;26.40;53.30
32753;DHT22;19121;52.428;10.816;2023-06-26T03:23:05;26.30;53.30
32753;DHT22;19121;52.428;10.816;2023-06-26T03:25:31;26.30;53.30
32753;DHT22;19121;52.428;10.816;2023-06-26T03:27:57;26.30;53.30
32753;DHT22;19121;52.428;10.816;2023-06-26T03:30:22;26.30;53.30
32753;DHT22;19121;52.428;10.816;2023-06-26T03:32:48;26.30;53.20
32753;DHT22;19121;52.428;10.816;2023-06-26T03:35:13;26.30;53.30
32753;DHT22;19121;52.428;10.816;2023-06-26T03:37:39;26.30;53.30
32753;DHT22;19121;52.428;10.816;2023-06-26T03:40:05;26.30;53.30
32753;DHT22;19121;52.428;10.816;2023-06-26T03:42:31;26.30;53.30
32753;DHT22;19121;52.428;10.816;2023-06-26T03:44:56;26.30;53.30
32753;DHT22;19121;52.428;10.816;2023-06-26T03:47:22;26.30;53.30
32753;DHT22;19121;52.428;10.816;2023-06-26T03:49:47;26.30;53.30
32753;DHT22;19121;52.428;10.816;2023-06-26T03:52:13;26.30;53.30
32753;DHT22;19121;52.428;10.816;2023-06-26T03:54:38;26.20;53.90
32753;DHT22;19121;52.428;10.816;2023-06-26T03:57:04;26.30;53.30
32753;DHT22;19121;52.428;10.816;2023-06-26T03:59:29;26.20;53.20
32753;DHT22;19121;52.428;10.816;2023-06-26T04:01:55;26.20;53.30
32753;DHT22;19121;52.428;10.816;2023-06-26T04:04:20;26.20;53.20
32753;DHT22;19121;52.428;10.816;2023-06-26T04:06:45;26.30;53.30
32753;DHT22;19121;52.428;10.816;2023-06-26T04:09:11;26.20;53.20
32753;DHT22;19121;52.428;10.816;2023-06-26T04:11:37;26.20;53.20
32753;DHT22;19121;52.428;10.816;2023-06-26T04:14:02;26.30;53.30
32753;DHT22;19121;52.428;10.816;2023-06-26T04:16:28;26.30;53.30
32753;DHT22;19121;52.428;10.816;2023-06-26T04:18:53;26.30;53.30
32753;DHT22;19121;52.428;10.816;2023-06-26T04:21:21;26.30;53.30
32753;DHT22;19121;52.428;10.816;2023-06-26T04:23:46;26.30;53.30
32753;DHT22;19121;52.428;10.816;2023-06-26T04:26:13;26.30;53.30
32753;DHT22;19121;52.428;10.816;2023-06-26T04:28:40;26.20;53.20
32753;DHT22;19121;52.428;10.816;2023-06-26T04:31:05;26.30;53.20
32753;DHT22;19121;52.428;10.816;2023-06-26T04:33:31;26.30;53.20
32753;DHT22;19121;52.428;10.816;2023-06-26T04:35:56;26.30;53.20
32753;DHT22;19121;52.428;10.816;2023-06-26T04:38:22;26.30;53.10
32753;DHT22;19121;52.428;10.816;2023-06-26T04:40:48;26.30;53.20
32753;DHT22;19121;52.428;10.816;2023-06-26T04:43:13;26.30;53.20
32753;DHT22;19121;52.428;10.816;2023-06-26T04:45:38;26.30;53.20
32753;DHT22;19121;52.428;10.816;2023-06-26T04:48:04;26.30;53.20
32753;DHT22;19121;52.428;10.816;2023-06-26T04:50:31;26.30;53.10
32753;DHT22;19121;52.428;10.816;2023-06-26T04:52:56;26.30;53.10
32753;DHT22;19121;52.428;10.816;2023-06-26T04:55:25;26.30;53.20
32753;DHT22;19121;52.428;10.816;2023-06-26T04:57:51;26.30;53.10
32753;DHT22;19121;52.428;10.816;2023-06-26T05:00:16;26.30;53.10
32753;DHT22;19121;52.428;10.816;2023-06-26T05:02:42;26.30;53.10
32753;DHT22;19121;52.428;10.816;2023-06-26T05:05:07;26.30;53.10
32753;DHT22;19121;52.428;10.816;2023-06-26T05:07:33;26.30;53.10
32753;DHT22;19121;52.428;10.816;2023-06-26T05:09:58;26.40;53.10
32753;DHT22;19121;52.428;10.816;2023-06-26T05:12:24;26.40;53.10
32753;DHT22;19121;52.428;10.816;2023-06-26T05:14:49;26.40;53.00
32753;DHT22;19121;52.428;10.816;2023-06-26T05:17:14;26.40;53.00
32753;DHT22;19121;52.428;10.816;2023-06-26T05:19:40;26.40;53.00
32753;DHT22;19121;52.428;10.816;2023-06-26T05:22:06;26.50;53.00
32753;DHT22;19121;52.428;10.816;2023-06-26T05:24:37;26.50;53.00
32753;DHT22;19121;52.428;10.816;2023-06-26T05:27:03;26.50;53.00
32753;DHT22;19121;52.428;10.816;2023-06-26T05:29:32;26.50;52.90
32753;DHT22;19121;52.428;10.816;2023-06-26T05:31:58;26.50;52.80
32753;DHT22;19121;52.428;10.816;2023-06-26T05:34:23;26.60;52.90
32753;DHT22;19121;52.428;10.816;2023-06-26T05:36:52;26.60;52.80
32753;DHT22;19121;52.428;10.816;2023-06-26T05:39:20;26.60;52.70
32753;DHT22;19121;52.428;10.816;2023-06-26T05:41:46;26.60;52.70
32753;DHT22;19121;52.428;10.816;2023-06-26T05:44:11;26.70;52.70
32753;DHT22;19121;52.428;10.816;2023-06-26T05:46:37;26.70;52.70
32753;DHT22;19121;52.428;10.816;2023-06-26T05:49:03;26.70;52.70
32753;DHT22;19121;52.428;10.816;2023-06-26T05:51:29;26.70;52.60
32753;DHT22;19121;52.428;10.816;2023-06-26T05:53:54;26.70;52.60
32753;DHT22;19121;52.428;10.816;2023-06-26T05:56:20;26.80;52.60
32753;DHT22;19121;52.428;10.816;2023-06-26T05:58:45;26.80;52.60
32753;DHT22;19121;52.428;10.816;2023-06-26T06:01:11;26.80;52.60
32753;DHT22;19121;52.428;10.816;2023-06-26T06:03:36;26.90;52.60
32753;DHT22;19121;52.428;10.816;2023-06-26T06:06:03;26.90;52.60
32753;DHT22;19121;52.428;10.816;2023-06-26T06:08:28;26.90;52.50
32753;DHT22;19121;52.428;10.816;2023-06-26T06:10:54;26.90;52.50
32753;DHT22;19121;52.428;10.816;2023-06-26T06:13:19;26.90;52.50
32753;DHT22;19121;52.428;10.816;2023-06-26T06:15:44;26.90;52.50
32753;DHT22;19121;52.428;10.816;2023-06-26T06:18:10;26.90;52.50
32753;DHT22;19121;52.428;10.816;2023-06-26T06:20:35;26.90;52.40
32753;DHT22;19121;52.428;10.816;2023-06-26T06:23:01;26.90;52.40
32753;DHT22;19121;52.428;10.816;2023-06-26T06:25:27;26.90;52.70
32753;DHT22;19121;52.428;10.816;2023-06-26T06:27:52;26.90;53.10
32753;DHT22;19121;52.428;10.816;2023-06-26T06:30:17;26.80;53.20
32753;DHT22;19121;52.428;10.816;2023-06-26T06:32:43;26.80;53.60
32753;DHT22;19121;52.428;10.816;2023-06-26T06:35:08;26.80;53.60
32753;DHT22;19121;52.428;10.816;2023-06-26T06:37:38;26.80;53.60
32753;DHT22;19121;52.428;10.816;2023-06-26T06:40:06;26.80;53.90
32753;DHT22;19121;52.428;10.816;2023-06-26T06:42:33;26.80;54.00
32753;DHT22;19121;52.428;10.816;2023-06-26T06:44:59;26.80;54.00
32753;DHT22;19121;52.428;10.816;2023-06-26T06:47:25;26.70;53.90
32753;DHT22;19121;52.428;10.816;2023-06-26T06:49:50;26.70;53.60
32753;DHT22;19121;52.428;10.816;2023-06-26T06:52:16;26.70;53.70
32753;DHT22;19121;52.428;10.816;2023-06-26T06:54:51;26.80;53.70
32753;DHT22;19121;52.428;10.816;2023-06-26T06:57:16;26.80;54.10
32753;DHT22;19121;52.428;10.816;2023-06-26T06:59:42;26.90;53.40
32753;DHT22;19121;52.428;10.816;2023-06-26T07:02:07;27.00;53.30
32753;DHT22;19121;52.428;10.816;2023-06-26T07:04:32;27.10;53.20
32753;DHT22;19121;52.428;10.816;2023-06-26T07:06:58;27.10;53.00
32753;DHT22;19121;52.428;10.816;2023-06-26T07:09:23;27.10;53.00
32753;DHT22;19121;52.428;10.816;2023-06-26T07:11:49;27.20;52.90
32753;DHT22;19121;52.428;10.816;2023-06-26T07:14:14;27.20;52.80
32753;DHT22;19121;52.428;10.816;2023-06-26T07:16:40;27.30;52.70
32753;DHT22;19121;52.428;10.816;2023-06-26T07:19:05;27.30;52.70
32753;DHT22;19121;52.428;10.816;2023-06-26T07:21:31;27.40;52.60
32753;DHT22;19121;52.428;10.816;2023-06-26T07:23:56;27.40;52.50
32753;DHT22;19121;52.428;10.816;2023-06-26T07:26:22;27.40;52.50
32753;DHT22;19121;52.428;10.816;2023-06-26T07:28:47;27.50;52.50
32753;DHT22;19121;52.428;10.816;2023-06-26T07:31:14;27.50;52.40
32753;DHT22;19121;52.428;10.816;2023-06-26T07:33:39;27.50;52.30
32753;DHT22;19121;52.428;10.816;2023-06-26T07:36:05;27.60;52.30
32753;DHT22;19121;52.428;10.816;2023-06-26T07:38:31;27.60;52.20
32753;DHT22;19121;52.428;10.816;2023-06-26T07:40:56;27.60;52.10
32753;DHT22;19121;52.428;10.816;2023-06-26T07:43:21;27.60;52.10
32753;DHT22;19121;52.428;10.816;2023-06-26T07:45:48;27.60;52.00
32753;DHT22;19121;52.428;10.816;2023-06-26T07:48:13;27.70;52.10
32753;DHT22;19121;52.428;10.816;2023-06-26T07:50:39;27.70;52.10
32753;DHT22;19121;52.428;10.816;2023-06-26T07:53:04;27.70;52.10
32753;DHT22;19121;52.428;10.816;2023-06-26T07:55:31;27.70;52.00
32753;DHT22;19121;52.428;10.816;2023-06-26T07:57:56;27.70;51.90
32753;DHT22;19121;52.428;10.816;2023-06-26T08:00:22;27.70;51.80
32753;DHT22;19121;52.428;10.816;2023-06-26T08:02:47;27.70;51.80
32753;DHT22;19121;52.428;10.816;2023-06-26T08:05:13;27.80;51.80
32753;DHT22;19121;52.428;10.816;2023-06-26T08:07:38;27.80;51.80
32753;DHT22;19121;52.428;10.816;2023-06-26T08:10:04;27.80;52.40
32753;DHT22;19121;52.428;10.816;2023-06-26T08:12:30;27.80;51.80
32753;DHT22;19121;52.428;10.816;2023-06-26T08:14:55;27.80;51.80
32753;DHT22;19121;52.428;10.816;2023-06-26T08:17:21;27.80;51.80
32753;DHT22;19121;52.428;10.816;2023-06-26T08:19:46;27.80;51.70
32753;DHT22;19121;52.428;10.816;2023-06-26T08:22:12;27.80;51.60
32753;DHT22;19121;52.428;10.816;2023-06-26T08:24:37;27.80;51.60
32753;DHT22;19121;52.428;10.816;2023-06-26T08:27:03;27.80;51.60
32753;DHT22;19121;52.428;10.816;2023-06-26T08:29:29;27.80;51.50
32753;DHT22;19121;52.428;10.816;2023-06-26T08:31:54;27.80;51.50
32753;DHT22;19121;52.428;10.816;2023-06-26T08:34:19;27.80;51.40
32753;DHT22;19121;52.428;10.816;2023-06-26T08:36:45;27.80;51.30
32753;DHT22;19121;52.428;10.816;2023-06-26T08:39:10;27.80;51.20
32753;DHT22;19121;52.428;10.816;2023-06-26T08:41:36;27.80;51.20
32753;DHT22;19121;52.428;10.816;2023-06-26T08:44:02;27.80;51.20
32753;DHT22;19121;52.428;10.816;2023-06-26T08:46:28;27.90;51.20
32753;DHT22;19121;52.428;10.816;2023-06-26T08:48:59;27.90;51.20
32753;DHT22;19121;52.428;10.816;2023-06-26T08:51:26;27.90;51.10
32753;DHT22;19121;52.428;10.816;2023-06-26T08:54:02;27.90;51.10
32753;DHT22;19121;52.428;10.816;2023-06-26T08:56:35;27.90;51.00
32753;DHT22;19121;52.428;10.816;2023-06-26T08:59:01;27.90;51.00
32753;DHT22;19121;52.428;10.816;2023-06-26T09:01:26;27.90;51.00
32753;DHT22;19121;52.428;10.816;2023-06-26T09:03:52;27.90;51.00
32753;DHT22;19121;52.428;10.816;2023-06-26T09:06:18;28.00;51.00
32753;DHT22;19121;52.428;10.816;2023-06-26T09:08:43;27.90;50.90
32753;DHT22;19121;52.428;10.816;2023-06-26T09:11:09;28.00;50.90
32753;DHT22;19121;52.428;10.816;2023-06-26T09:13:34;27.90;50.80
32753;DHT22;19121;52.428;10.816;2023-06-26T09:16:04;28.00;50.80
32753;DHT22;19121;52.428;10.816;2023-06-26T09:18:29;27.90;50.80
32753;DHT22;19121;52.428;10.816;2023-06-26T09:20:54;28.00;50.80
32753;DHT22;19121;52.428;10.816;2023-06-26T09:23:21;27.90;50.70
32753;DHT22;19121;52.428;10.816;2023-06-26T09:25:47;28.00;50.60
32753;DHT22;19121;52.428;10.816;2023-06-26T09:28:12;27.90;50.40
32753;DHT22;19121;52.428;10.816;2023-06-26T09:30:38;27.90;50.30
32753;DHT22;19121;52.428;10.816;2023-06-26T09:33:16;27.90;50.20
32753;DHT22;19121;52.428;10.816;2023-06-26T09:35:42;28.00;50.20
32753;DHT22;19121;52.428;10.816;2023-06-26T09:38:08;28.00;50.10
32753;DHT22;19121;52.428;10.816;2023-06-26T09:40:33;28.00;50.00
32753;DHT22;19121;52.428;10.816;2023-06-26T09:43:10;28.00;50.10
32753;DHT22;19121;52.428;10.816;2023-06-26T09:45:39;28.00;50.00
32753;DHT22;19121;52.428;10.816;2023-06-26T09:48:05;28.00;50.20
32753;DHT22;19121;52.428;10.816;2023-06-26T09:50:32;28.00;50.10
32753;DHT22;19121;52.428;10.816;2023-06-26T09:53:06;28.00;50.10
32753;DHT22;19121;52.428;10.816;2023-06-26T09:55:34;28.00;50.10
32753;DHT22;19121;52.428;10.816;2023-06-26T09:57:59;28.00;50.10
32753;DHT22;19121;52.428;10.816;2023-06-26T10:00:25;28.00;50.10
32753;DHT22;19121;52.428;10.816;2023-06-26T10:02:51;28.00;50.10
32753;DHT22;19121;52.428;10.816;2023-06-26T10:05:16;28.00;50.10
32753;DHT22;19121;52.428;10.816;2023-06-26T10:07:41;28.00;50.20
32753;DHT22;19121;52.428;10.816;2023-06-26T10:10:07;28.00;50.20
32753;DHT22;19121;52.428;10.816;2023-06-26T10:12:33;28.00;50.40
32753;DHT22;19121;52.428;10.816;2023-06-26T10:15:00;28.10;50.40
32753;DHT22;19121;52.428;10.816;2023-06-26T10:17:28;28.00;50.30
32753;DHT22;19121;52.428;10.816;2023-06-26T10:19:55;28.00;50.30
32753;DHT22;19121;52.428;10.816;2023-06-26T10:22:21;28.10;50.30
32753;DHT22;19121;52.428;10.816;2023-06-26T10:24:50;28.00;50.20
32753;DHT22;19121;52.428;10.816;2023-06-26T10:27:17;28.00;50.20
32753;DHT22;19121;52.428;10.816;2023-06-26T10:29:44;28.10;50.30
32753;DHT22;19121;52.428;10.816;2023-06-26T10:32:11;28.00;50.10
32753;DHT22;19121;52.428;10.816;2023-06-26T10:34:37;28.10;50.20
32753;DHT22;19121;52.428;10.816;2023-06-26T10:37:03;28.10;50.10
32753;DHT22;19121;52.428;10.816;2023-06-26T10:42:10;28.10;50.20
32753;DHT22;19121;52.428;10.816;2023-06-26T10:44:42;28.10;50.20
32753;DHT22;19121;52.428;10.816;2023-06-26T10:47:08;28.10;50.40
32753;DHT22;19121;52.428;10.816;2023-06-26T10:49:34;28.10;50.40
32753;DHT22;19121;52.428;10.816;2023-06-26T10:52:00;28.10;50.50
32753;DHT22;19121;52.428;10.816;2023-06-26T10:54:28;28.10;50.50
32753;DHT22;19121;52.428;10.816;2023-06-26T10:56:54;28.10;50.50
32753;DHT22;19121;52.428;10.816;2023-06-26T10:59:26;28.20;50.50
32753;DHT22;19121;52.428;10.816;2023-06-26T11:01:59;28.20;50.50
32753;DHT22;19121;52.428;10.816;2023-06-26T11:07:15;28.20;50.60
32753;DHT22;19121;52.428;10.816;2023-06-26T11:09:55;28.20;50.70
32753;DHT22;19121;52.428;10.816;2023-06-26T11:15:19;28.20;50.80
32753;DHT22;19121;52.428;10.816;2023-06-26T11:17:45;28.20;50.80
32753;DHT22;19121;52.428;10.816;2023-06-26T11:20:13;28.20;50.90
32753;DHT22;19121;52.428;10.816;2023-06-26T11:22:40;28.20;50.90
32753;DHT22;19121;52.428;10.816;2023-06-26T11:25:06;28.20;51.00
32753;DHT22;19121;52.428;10.816;2023-06-26T11:29:57;28.20;51.00
32753;DHT22;19121;52.428;10.816;2023-06-26T11:32:23;28.20;51.00
32753;DHT22;19121;52.428;10.816;2023-06-26T11:34:51;28.20;51.00
32753;DHT22;19121;52.428;10.816;2023-06-26T11:37:17;28.20;51.00
32753;DHT22;19121;52.428;10.816;2023-06-26T11:39:42;28.20;51.00
32753;DHT22;19121;52.428;10.816;2023-06-26T11:42:07;28.20;51.00
32753;DHT22;19121;52.428;10.816;2023-06-26T11:44:35;28.20;51.10
32753;DHT22;19121;52.428;10.816;2023-06-26T11:47:04;28.20;51.10
32753;DHT22;19121;52.428;10.816;2023-06-26T11:49:30;28.20;51.10
32753;DHT22;19121;52.428;10.816;2023-06-26T11:51:56;28.20;51.10
32753;DHT22;19121;52.428;10.816;2023-06-26T11:54:25;28.20;51.20
32753;DHT22;19121;52.428;10.816;2023-06-26T11:56:51;28.10;51.30
32753;DHT22;19121;52.428;10.816;2023-06-26T11:59:17;28.10;51.30
32753;DHT22;19121;52.428;10.816;2023-06-26T12:01:43;28.10;51.40
32753;DHT22;19121;52.428;10.816;2023-06-26T12:04:12;28.10;51.50
32753;DHT22;19121;52.428;10.816;2023-06-26T12:06:38;28.10;51.60
32753;DHT22;19121;52.428;10.816;2023-06-26T12:09:06;28.10;51.70
32753;DHT22;19121;52.428;10.816;2023-06-26T12:11:34;28.10;52.40
32753;DHT22;19121;52.428;10.816;2023-06-26T12:14:00;28.00;51.80
32753;DHT22;19121;52.428;10.816;2023-06-26T12:16:27;28.10;51.90
32753;DHT22;19121;52.428;10.816;2023-06-26T12:18:57;28.00;51.90
32753;DHT22;19121;52.428;10.816;2023-06-26T12:21:43;28.00;52.00
32753;DHT22;19121;52.428;10.816;2023-06-26T12:24:10;28.00;52.00
32753;DHT22;19121;52.428;10.816;2023-06-26T12:26:36;28.00;52.00
32753;DHT22;19121;52.428;10.816;2023-06-26T12:29:04;28.00;51.90
32753;DHT22;19121;52.428;10.816;2023-06-26T12:31:30;28.00;51.90
32753;DHT22;19121;52.428;10.816;2023-06-26T12:33:56;28.00;52.00
32753;DHT22;19121;52.428;10.816;2023-06-26T12:36:21;28.00;51.90
32753;DHT22;19121;52.428;10.816;2023-06-26T12:38:48;28.00;52.00
32753;DHT22;19121;52.428;10.816;2023-06-26T12:41:14;28.00;52.00
32753;DHT22;19121;52.428;10.816;2023-06-26T12:43:42;28.00;52.00
32753;DHT22;19121;52.428;10.816;2023-06-26T12:46:08;27.90;51.90
32753;DHT22;19121;52.428;10.816;2023-06-26T12:48:37;27.90;52.00
32753;DHT22;19121;52.428;10.816;2023-06-26T12:51:10;27.90;52.00
32753;DHT22;19121;52.428;10.816;2023-06-26T12:53:36;27.90;52.10
32753;DHT22;19121;52.428;10.816;2023-06-26T12:56:02;27.90;52.10
32753;DHT22;19121;52.428;10.816;2023-06-26T12:58:28;27.90;52.20
32753;DHT22;19121;52.428;10.816;2023-06-26T13:00:53;27.90;52.20
32753;DHT22;19121;52.428;10.816;2023-06-26T13:03:19;27.90;52.90
32753;DHT22;19121;52.428;10.816;2023-06-26T13:05:46;27.80;52.20
32753;DHT22;19121;52.428;10.816;2023-06-26T13:08:11;27.80;52.30
32753;DHT22;19121;52.428;10.816;2023-06-26T13:10:37;27.80;52.40
32753;DHT22;19121;52.428;10.816;2023-06-26T13:13:02;27.80;52.40
32753;DHT22;19121;52.428;10.816;2023-06-26T13:15:28;27.80;52.50
32753;DHT22;19121;52.428;10.816;2023-06-26T13:17:53;27.80;52.50
32753;DHT22;19121;52.428;10.816;2023-06-26T13:20:19;27.80;52.50
32753;DHT22;19121;52.428;10.816;2023-06-26T13:22:44;27.80;52.60
32753;DHT22;19121;52.428;10.816;2023-06-26T13:25:11;27.80;52.60
32753;DHT22;19121;52.428;10.816;2023-06-26T13:27:37;27.80;52.60
32753;DHT22;19121;52.428;10.816;2023-06-26T13:30:02;27.80;52.70
32753;DHT22;19121;52.428;10.816;2023-06-26T13:32:28;27.80;52.70
32753;DHT22;19121;52.428;10.816;2023-06-26T13:34:53;27.80;52.70
32753;DHT22;19121;52.428;10.816;2023-06-26T13:37:19;27.80;52.70
32753;DHT22;19121;52.428;10.816;2023-06-26T13:39:45;27.80;52.70
32753;DHT22;19121;52.428;10.816;2023-06-26T13:42:15;27.80;52.70
32753;DHT22;19121;52.428;10.816;2023-06-26T13:44:41;27.80;52.60
32753;DHT22;19121;52.428;10.816;2023-06-26T13:47:06;27.80;52.70
32753;DHT22;19121;52.428;10.816;2023-06-26T13:49:31;27.80;52.70
32753;DHT22;19121;52.428;10.816;2023-06-26T13:51:57;27.80;52.60
32753;DHT22;19121;52.428;10.816;2023-06-26T13:54:22;27.80;52.60
32753;DHT22;19121;52.428;10.816;2023-06-26T13:56:48;27.80;52.60
32753;DHT22;19121;52.428;10.816;2023-06-26T13:59:13;27.80;52.60
32753;DHT22;19121;52.428;10.816;2023-06-26T14:01:39;27.80;52.50
32753;DHT22;19121;52.428;10.816;2023-06-26T14:04:05;27.80;52.50
32753;DHT22;19121;52.428;10.816;2023-06-26T14:06:30;27.80;52.50
32753;DHT22;19121;52.428;10.816;2023-06-26T14:08:57;27.80;52.40
32753;DHT22;19121;52.428;10.816;2023-06-26T14:11:23;27.80;52.40
32753;DHT22;19121;52.428;10.816;2023-06-26T14:13:48;27.80;52.40
32753;DHT22;19121;52.428;10.816;2023-06-26T14:16:14;27.80;52.30
32753;DHT22;19121;52.428;10.816;2023-06-26T14:18:40;27.80;52.30
32753;DHT22;19121;52.428;10.816;2023-06-26T14:21:05;27.80;52.30
32753;DHT22;19121;52.428;10.816;2023-06-26T14:23:31;27.70;52.10
32753;DHT22;19121;52.428;10.816;2023-06-26T14:25:56;27.80;52.10
32753;DHT22;19121;52.428;10.816;2023-06-26T14:28:22;27.80;52.00
32753;DHT22;19121;52.428;10.816;2023-06-26T14:30:47;27.80;52.00
32753;DHT22;19121;52.428;10.816;2023-06-26T14:33:12;27.70;52.00
32753;DHT22;19121;52.428;10.816;2023-06-26T14:35:38;27.70;51.90
32753;DHT22;19121;52.428;10.816;2023-06-26T14:38:03;27.70;51.80
32753;DHT22;19121;52.428;10.816;2023-06-26T14:40:29;27.70;51.70
32753;DHT22;19121;52.428;10.816;2023-06-26T14:42:54;27.70;51.70
32753;DHT22;19121;52.428;10.816;2023-06-26T14:45:19;27.70;51.80
32753;DHT22;19121;52.428;10.816;2023-06-26T14:47:45;27.70;51.70
32753;DHT22;19121;52.428;10.816;2023-06-26T14:50:10;27.70;51.70
32753;DHT22;19121;52.428;10.816;2023-06-26T14:52:36;27.70;51.60
32753;DHT22;19121;52.428;10.816;2023-06-26T14:55:01;27.70;51.60
32753;DHT22;19121;52.428;10.816;2023-06-26T14:57:27;27.70;51.60
32753;DHT22;19121;52.428;10.816;2023-06-26T14:59:52;27.70;51.50
32753;DHT22;19121;52.428;10.816;2023-06-26T15:02:17;27.70;51.40
32753;DHT22;19121;52.428;10.816;2023-06-26T15:04:43;27.70;51.50
32753;DHT22;19121;52.428;10.816;2023-06-26T15:07:08;27.70;51.30
32753;DHT22;19121;52.428;10.816;2023-06-26T15:09:34;27.70;51.20
32753;DHT22;19121;52.428;10.816;2023-06-26T15:11:59;27.70;51.00
32753;DHT22;19121;52.428;10.816;2023-06-26T15:14:25;27.70;51.00
32753;DHT22;19121;52.428;10.816;2023-06-26T15:16:50;27.70;51.00
32753;DHT22;19121;52.428;10.816;2023-06-26T15:19:15;27.70;51.00
32753;DHT22;19121;52.428;10.816;2023-06-26T15:21:41;27.80;51.00
32753;DHT22;19121;52.428;10.816;2023-06-26T15:24:06;27.70;50.90
32753;DHT22;19121;52.428;10.816;2023-06-26T15:26:32;27.80;51.00
32753;DHT22;19121;52.428;10.816;2023-06-26T15:28:57;27.80;50.90